sensor_id;sensor_type;location;lat;lon;timestamp;P1;durP1;ratioP1;P2;durP2;ratioP2
8415;SDS011;4245;42.120;24.732;2023-05-14T00:01:33;4.90;;;3.60;;
8415;SDS011;4245;42.120;24.732;2023-05-14T00:04:02;4.70;;;3.60;;
8415;SDS011;4245;42.120;24.732;2023-05-14T00:06:29;5.93;;;3.17;;
8415;SDS011;4245;42.120;24.732;2023-05-14T00:08:57;4.17;;;3.33;;
8415;SDS011;4245;42.120;24.732;2023-05-14T00:11:24;7.23;;;3.60;;
8415;SDS011;4245;42.120;24.732;2023-05-14T00:13:51;7.43;;;5.60;;
8415;SDS011;4245;42.120;24.732;2023-05-14T00:16:18;4.47;;;3.03;;
8415;SDS011;4245;42.120;24.732;2023-05-14T00:18:45;5.23;;;3.90;;
8415;SDS011;4245;42.120;24.732;2023-05-14T00:21:13;4.50;;;3.50;;
8415;SDS011;4245;42.120;24.732;2023-05-14T00:23:40;5.90;;;3.13;;
8415;SDS011;4245;42.120;24.732;2023-05-14T00:26:07;5.73;;;3.37;;
8415;SDS011;4245;42.120;24.732;2023-05-14T00:28:34;5.80;;;3.40;;
8415;SDS011;4245;42.120;24.732;2023-05-14T00:31:01;6.87;;;3.80;;
8415;SDS011;4245;42.120;24.732;2023-05-14T00:33:28;3.73;;;3.07;;
8415;SDS011;4245;42.120;24.732;2023-05-14T00:35:54;6.93;;;3.53;;
8415;SDS011;4245;42.120;24.732;2023-05-14T00:38:23;5.73;;;3.67;;
8415;SDS011;4245;42.120;24.732;2023-05-14T00:40:51;5.67;;;3.70;;
8415;SDS011;4245;42.120;24.732;2023-05-14T00:43:18;4.67;;;3.73;;
8415;SDS011;4245;42.120;24.732;2023-05-14T00:45:46;5.37;;;3.80;;
8415;SDS011;4245;42.120;24.732;2023-05-14T00:48:15;4.67;;;4.03;;
8415;SDS011;4245;42.120;24.732;2023-05-14T00:50:43;5.40;;;3.83;;
8415;SDS011;4245;42.120;24.732;2023-05-14T00:53:10;6.80;;;4.10;;
8415;SDS011;4245;42.120;24.732;2023-05-14T00:55:39;6.00;;;4.37;;
8415;SDS011;4245;42.120;24.732;2023-05-14T00:58:08;7.37;;;4.30;;
8415;SDS011;4245;42.120;24.732;2023-05-14T01:00:37;7.00;;;4.60;;
8415;SDS011;4245;42.120;24.732;2023-05-14T01:03:05;5.60;;;3.90;;
8415;SDS011;4245;42.120;24.732;2023-05-14T01:05:34;8.53;;;3.90;;
8415;SDS011;4245;42.120;24.732;2023-05-14T01:08:12;8.47;;;4.57;;
8415;SDS011;4245;42.120;24.732;2023-05-14T01:10:51;5.97;;;4.60;;
8415;SDS011;4245;42.120;24.732;2023-05-14T01:13:35;5.90;;;4.20;;
8415;SDS011;4245;42.120;24.732;2023-05-14T01:16:07;6.37;;;4.27;;
8415;SDS011;4245;42.120;24.732;2023-05-14T01:18:39;4.73;;;4.17;;
8415;SDS011;4245;42.120;24.732;2023-05-14T01:21:17;5.60;;;4.40;;
8415;SDS011;4245;42.120;24.732;2023-05-14T01:23:58;7.60;;;4.80;;
8415;SDS011;4245;42.120;24.732;2023-05-14T01:26:25;5.40;;;4.37;;
8415;SDS011;4245;42.120;24.732;2023-05-14T01:28:52;7.23;;;4.30;;
8415;SDS011;4245;42.120;24.732;2023-05-14T01:31:23;5.67;;;4.30;;
8415;SDS011;4245;42.120;24.732;2023-05-14T01:33:53;5.17;;;3.90;;
8415;SDS011;4245;42.120;24.732;2023-05-14T01:36:25;5.97;;;4.10;;
8415;SDS011;4245;42.120;24.732;2023-05-14T01:38:54;8.10;;;4.30;;
8415;SDS011;4245;42.120;24.732;2023-05-14T01:41:22;6.53;;;4.43;;
8415;SDS011;4245;42.120;24.732;2023-05-14T01:43:51;8.63;;;4.30;;
8415;SDS011;4245;42.120;24.732;2023-05-14T01:46:18;8.73;;;4.83;;
8415;SDS011;4245;42.120;24.732;2023-05-14T01:48:48;8.00;;;4.77;;
8415;SDS011;4245;42.120;24.732;2023-05-14T01:51:15;7.00;;;4.73;;
8415;SDS011;4245;42.120;24.732;2023-05-14T01:53:43;8.30;;;5.00;;
8415;SDS011;4245;42.120;24.732;2023-05-14T01:56:10;10.77;;;5.60;;
8415;SDS011;4245;42.120;24.732;2023-05-14T01:58:37;11.97;;;5.73;;
8415;SDS011;4245;42.120;24.732;2023-05-14T02:01:04;7.70;;;5.13;;
8415;SDS011;4245;42.120;24.732;2023-05-14T02:03:31;13.50;;;5.63;;
8415;SDS011;4245;42.120;24.732;2023-05-14T02:05:57;6.27;;;4.70;;
8415;SDS011;4245;42.120;24.732;2023-05-14T02:08:25;5.57;;;4.10;;
8415;SDS011;4245;42.120;24.732;2023-05-14T02:10:53;7.30;;;5.00;;
8415;SDS011;4245;42.120;24.732;2023-05-14T02:13:20;7.63;;;4.13;;
8415;SDS011;4245;42.120;24.732;2023-05-14T02:15:47;5.17;;;3.57;;
8415;SDS011;4245;42.120;24.732;2023-05-14T02:18:15;4.80;;;3.80;;
8415;SDS011;4245;42.120;24.732;2023-05-14T02:20:41;5.97;;;3.70;;
8415;SDS011;4245;42.120;24.732;2023-05-14T02:23:08;6.87;;;4.00;;
8415;SDS011;4245;42.120;24.732;2023-05-14T02:25:35;4.77;;;3.80;;
8415;SDS011;4245;42.120;24.732;2023-05-14T02:28:04;8.00;;;4.10;;
8415;SDS011;4245;42.120;24.732;2023-05-14T02:30:31;6.03;;;3.90;;
8415;SDS011;4245;42.120;24.732;2023-05-14T02:32:58;5.10;;;3.87;;
8415;SDS011;4245;42.120;24.732;2023-05-14T02:35:25;5.77;;;4.10;;
8415;SDS011;4245;42.120;24.732;2023-05-14T02:37:52;4.93;;;3.90;;
8415;SDS011;4245;42.120;24.732;2023-05-14T02:40:20;6.23;;;5.40;;
8415;SDS011;4245;42.120;24.732;2023-05-14T02:42:47;6.90;;;4.13;;
8415;SDS011;4245;42.120;24.732;2023-05-14T02:45:15;8.60;;;4.37;;
8415;SDS011;4245;42.120;24.732;2023-05-14T02:47:42;8.97;;;4.53;;
8415;SDS011;4245;42.120;24.732;2023-05-14T02:50:09;8.17;;;4.70;;
8415;SDS011;4245;42.120;24.732;2023-05-14T02:52:36;8.70;;;4.93;;
8415;SDS011;4245;42.120;24.732;2023-05-14T02:55:03;6.73;;;5.10;;
8415;SDS011;4245;42.120;24.732;2023-05-14T02:57:31;6.33;;;4.87;;
8415;SDS011;4245;42.120;24.732;2023-05-14T02:59:57;9.77;;;5.20;;
8415;SDS011;4245;42.120;24.732;2023-05-14T03:02:26;7.27;;;4.93;;
8415;SDS011;4245;42.120;24.732;2023-05-14T03:04:53;8.27;;;4.67;;
8415;SDS011;4245;42.120;24.732;2023-05-14T03:07:19;6.23;;;4.50;;
8415;SDS011;4245;42.120;24.732;2023-05-14T03:09:46;8.27;;;4.40;;
8415;SDS011;4245;42.120;24.732;2023-05-14T03:12:13;5.70;;;4.17;;
8415;SDS011;4245;42.120;24.732;2023-05-14T03:14:40;5.20;;;4.10;;
8415;SDS011;4245;42.120;24.732;2023-05-14T03:17:07;6.53;;;4.13;;
8415;SDS011;4245;42.120;24.732;2023-05-14T03:19:36;5.20;;;3.83;;
8415;SDS011;4245;42.120;24.732;2023-05-14T03:22:03;7.57;;;3.93;;
8415;SDS011;4245;42.120;24.732;2023-05-14T03:24:30;4.37;;;3.80;;
8415;SDS011;4245;42.120;24.732;2023-05-14T03:26:57;4.53;;;3.67;;
8415;SDS011;4245;42.120;24.732;2023-05-14T03:29:24;7.53;;;4.37;;
8415;SDS011;4245;42.120;24.732;2023-05-14T03:31:50;6.77;;;4.00;;
8415;SDS011;4245;42.120;24.732;2023-05-14T03:34:18;6.67;;;3.93;;
8415;SDS011;4245;42.120;24.732;2023-05-14T03:36:47;6.47;;;4.80;;
8415;SDS011;4245;42.120;24.732;2023-05-14T03:39:13;7.00;;;4.40;;
8415;SDS011;4245;42.120;24.732;2023-05-14T03:41:43;6.60;;;4.80;;
8415;SDS011;4245;42.120;24.732;2023-05-14T03:44:10;8.03;;;4.87;;
8415;SDS011;4245;42.120;24.732;2023-05-14T03:46:37;8.27;;;4.40;;
8415;SDS011;4245;42.120;24.732;2023-05-14T03:49:05;5.57;;;4.47;;
8415;SDS011;4245;42.120;24.732;2023-05-14T03:51:32;5.43;;;4.50;;
8415;SDS011;4245;42.120;24.732;2023-05-14T03:54:01;6.53;;;4.13;;
8415;SDS011;4245;42.120;24.732;2023-05-14T03:56:28;5.93;;;4.43;;
8415;SDS011;4245;42.120;24.732;2023-05-14T03:58:55;9.77;;;4.40;;
8415;SDS011;4245;42.120;24.732;2023-05-14T04:01:22;7.53;;;4.90;;
8415;SDS011;4245;42.120;24.732;2023-05-14T04:03:49;6.40;;;4.67;;
8415;SDS011;4245;42.120;24.732;2023-05-14T04:06:16;6.63;;;4.80;;
8415;SDS011;4245;42.120;24.732;2023-05-14T04:08:43;6.40;;;4.63;;
8415;SDS011;4245;42.120;24.732;2023-05-14T04:11:11;7.20;;;4.90;;
8415;SDS011;4245;42.120;24.732;2023-05-14T04:13:38;7.27;;;4.40;;
8415;SDS011;4245;42.120;24.732;2023-05-14T04:16:05;10.57;;;5.80;;
8415;SDS011;4245;42.120;24.732;2023-05-14T04:18:32;5.50;;;4.53;;
8415;SDS011;4245;42.120;24.732;2023-05-14T04:20:59;7.27;;;4.97;;
8415;SDS011;4245;42.120;24.732;2023-05-14T04:23:27;6.63;;;4.73;;
8415;SDS011;4245;42.120;24.732;2023-05-14T04:25:56;8.63;;;5.50;;
8415;SDS011;4245;42.120;24.732;2023-05-14T04:28:25;7.73;;;4.67;;
8415;SDS011;4245;42.120;24.732;2023-05-14T04:30:52;8.53;;;5.37;;
8415;SDS011;4245;42.120;24.732;2023-05-14T04:33:19;5.97;;;4.70;;
8415;SDS011;4245;42.120;24.732;2023-05-14T04:35:46;6.60;;;4.77;;
8415;SDS011;4245;42.120;24.732;2023-05-14T04:38:13;10.83;;;4.80;;
8415;SDS011;4245;42.120;24.732;2023-05-14T04:40:40;5.90;;;4.60;;
8415;SDS011;4245;42.120;24.732;2023-05-14T04:43:07;5.80;;;4.87;;
8415;SDS011;4245;42.120;24.732;2023-05-14T04:45:36;7.70;;;5.27;;
8415;SDS011;4245;42.120;24.732;2023-05-14T04:48:03;9.17;;;5.30;;
8415;SDS011;4245;42.120;24.732;2023-05-14T04:50:31;7.70;;;5.33;;
8415;SDS011;4245;42.120;24.732;2023-05-14T04:52:58;9.20;;;5.40;;
8415;SDS011;4245;42.120;24.732;2023-05-14T04:55:25;9.57;;;4.83;;
8415;SDS011;4245;42.120;24.732;2023-05-14T04:57:52;7.90;;;4.90;;
8415;SDS011;4245;42.120;24.732;2023-05-14T05:00:21;7.07;;;5.20;;
8415;SDS011;4245;42.120;24.732;2023-05-14T05:02:49;7.57;;;5.20;;
8415;SDS011;4245;42.120;24.732;2023-05-14T05:05:16;7.70;;;5.37;;
8415;SDS011;4245;42.120;24.732;2023-05-14T05:07:43;7.57;;;5.07;;
8415;SDS011;4245;42.120;24.732;2023-05-14T05:10:10;7.53;;;5.90;;
8415;SDS011;4245;42.120;24.732;2023-05-14T05:12:37;7.57;;;5.10;;
8415;SDS011;4245;42.120;24.732;2023-05-14T05:15:04;10.20;;;5.80;;
8415;SDS011;4245;42.120;24.732;2023-05-14T05:17:32;12.50;;;6.10;;
8415;SDS011;4245;42.120;24.732;2023-05-14T05:20:00;20.03;;;6.70;;
8415;SDS011;4245;42.120;24.732;2023-05-14T05:22:29;17.57;;;8.40;;
8415;SDS011;4245;42.120;24.732;2023-05-14T05:24:56;17.00;;;7.73;;
8415;SDS011;4245;42.120;24.732;2023-05-14T05:27:23;15.03;;;6.90;;
8415;SDS011;4245;42.120;24.732;2023-05-14T05:29:51;12.73;;;7.30;;
8415;SDS011;4245;42.120;24.732;2023-05-14T05:32:18;12.17;;;6.33;;
8415;SDS011;4245;42.120;24.732;2023-05-14T05:34:44;10.23;;;5.80;;
8415;SDS011;4245;42.120;24.732;2023-05-14T05:37:13;9.47;;;5.80;;
8415;SDS011;4245;42.120;24.732;2023-05-14T05:39:40;8.87;;;5.07;;
8415;SDS011;4245;42.120;24.732;2023-05-14T05:42:07;5.87;;;4.73;;
8415;SDS011;4245;42.120;24.732;2023-05-14T05:44:34;9.93;;;4.83;;
8415;SDS011;4245;42.120;24.732;2023-05-14T05:47:01;8.50;;;4.93;;
8415;SDS011;4245;42.120;24.732;2023-05-14T05:49:28;7.73;;;5.33;;
8415;SDS011;4245;42.120;24.732;2023-05-14T05:51:55;10.70;;;5.00;;
8415;SDS011;4245;42.120;24.732;2023-05-14T05:54:23;7.67;;;5.23;;
8415;SDS011;4245;42.120;24.732;2023-05-14T05:56:51;9.63;;;4.83;;
8415;SDS011;4245;42.120;24.732;2023-05-14T05:59:18;8.70;;;5.17;;
8415;SDS011;4245;42.120;24.732;2023-05-14T06:01:45;7.97;;;5.30;;
8415;SDS011;4245;42.120;24.732;2023-05-14T06:04:12;7.00;;;4.83;;
8415;SDS011;4245;42.120;24.732;2023-05-14T06:06:39;10.47;;;5.83;;
8415;SDS011;4245;42.120;24.732;2023-05-14T06:09:06;8.73;;;4.70;;
8415;SDS011;4245;42.120;24.732;2023-05-14T06:11:34;15.27;;;5.30;;
8415;SDS011;4245;42.120;24.732;2023-05-14T06:14:01;7.00;;;4.50;;
8415;SDS011;4245;42.120;24.732;2023-05-14T06:16:28;14.57;;;5.60;;
8415;SDS011;4245;42.120;24.732;2023-05-14T06:18:55;10.90;;;5.50;;
8415;SDS011;4245;42.120;24.732;2023-05-14T06:21:22;9.50;;;5.47;;
8415;SDS011;4245;42.120;24.732;2023-05-14T06:23:49;10.37;;;5.60;;
8415;SDS011;4245;42.120;24.732;2023-05-14T06:26:16;8.90;;;5.40;;
8415;SDS011;4245;42.120;24.732;2023-05-14T06:28:44;8.63;;;5.27;;
8415;SDS011;4245;42.120;24.732;2023-05-14T06:31:11;13.23;;;6.17;;
8415;SDS011;4245;42.120;24.732;2023-05-14T06:33:38;11.53;;;5.90;;
8415;SDS011;4245;42.120;24.732;2023-05-14T06:36:06;9.77;;;5.10;;
8415;SDS011;4245;42.120;24.732;2023-05-14T06:38:33;9.83;;;5.40;;
8415;SDS011;4245;42.120;24.732;2023-05-14T06:41:00;7.50;;;5.20;;
8415;SDS011;4245;42.120;24.732;2023-05-14T06:43:27;9.47;;;6.27;;
8415;SDS011;4245;42.120;24.732;2023-05-14T06:45:55;11.20;;;6.03;;
8415;SDS011;4245;42.120;24.732;2023-05-14T06:48:22;15.97;;;8.97;;
8415;SDS011;4245;42.120;24.732;2023-05-14T06:50:51;12.40;;;6.00;;
8415;SDS011;4245;42.120;24.732;2023-05-14T06:53:18;10.90;;;6.87;;
8415;SDS011;4245;42.120;24.732;2023-05-14T06:55:46;10.17;;;6.67;;
8415;SDS011;4245;42.120;24.732;2023-05-14T06:58:13;10.23;;;6.50;;
8415;SDS011;4245;42.120;24.732;2023-05-14T07:00:40;10.87;;;6.00;;
8415;SDS011;4245;42.120;24.732;2023-05-14T07:03:08;14.03;;;7.10;;
8415;SDS011;4245;42.120;24.732;2023-05-14T07:05:35;10.23;;;7.27;;
8415;SDS011;4245;42.120;24.732;2023-05-14T07:08:04;14.40;;;7.63;;
8415;SDS011;4245;42.120;24.732;2023-05-14T07:10:31;12.73;;;8.20;;
8415;SDS011;4245;42.120;24.732;2023-05-14T07:12:58;14.97;;;8.43;;
8415;SDS011;4245;42.120;24.732;2023-05-14T07:15:25;18.33;;;10.37;;
8415;SDS011;4245;42.120;24.732;2023-05-14T07:17:52;15.73;;;9.37;;
8415;SDS011;4245;42.120;24.732;2023-05-14T07:20:20;10.87;;;8.97;;
8415;SDS011;4245;42.120;24.732;2023-05-14T07:22:48;11.53;;;8.67;;
8415;SDS011;4245;42.120;24.732;2023-05-14T07:25:17;14.27;;;8.53;;
8415;SDS011;4245;42.120;24.732;2023-05-14T07:27:44;13.87;;;8.20;;
8415;SDS011;4245;42.120;24.732;2023-05-14T07:30:11;13.67;;;8.83;;
8415;SDS011;4245;42.120;24.732;2023-05-14T07:32:38;15.20;;;9.30;;
8415;SDS011;4245;42.120;24.732;2023-05-14T07:35:06;14.63;;;8.87;;
8415;SDS011;4245;42.120;24.732;2023-05-14T07:37:34;12.53;;;8.67;;
8415;SDS011;4245;42.120;24.732;2023-05-14T07:40:01;11.63;;;8.23;;
8415;SDS011;4245;42.120;24.732;2023-05-14T07:42:29;11.03;;;7.93;;
8415;SDS011;4245;42.120;24.732;2023-05-14T07:44:56;12.47;;;7.93;;
8415;SDS011;4245;42.120;24.732;2023-05-14T07:47:23;10.07;;;7.30;;
8415;SDS011;4245;42.120;24.732;2023-05-14T07:49:52;14.43;;;7.70;;
8415;SDS011;4245;42.120;24.732;2023-05-14T07:52:20;10.40;;;7.17;;
8415;SDS011;4245;42.120;24.732;2023-05-14T07:54:48;10.23;;;7.13;;
8415;SDS011;4245;42.120;24.732;2023-05-14T07:57:16;10.43;;;6.33;;
8415;SDS011;4245;42.120;24.732;2023-05-14T07:59:43;9.03;;;6.13;;
8415;SDS011;4245;42.120;24.732;2023-05-14T08:02:10;10.33;;;7.20;;
8415;SDS011;4245;42.120;24.732;2023-05-14T08:04:38;11.63;;;8.03;;
8415;SDS011;4245;42.120;24.732;2023-05-14T08:07:05;13.67;;;10.83;;
8415;SDS011;4245;42.120;24.732;2023-05-14T08:09:33;13.33;;;9.80;;
8415;SDS011;4245;42.120;24.732;2023-05-14T08:12:02;14.30;;;9.30;;
8415;SDS011;4245;42.120;24.732;2023-05-14T08:14:29;14.93;;;9.60;;
8415;SDS011;4245;42.120;24.732;2023-05-14T08:16:56;13.93;;;8.80;;
8415;SDS011;4245;42.120;24.732;2023-05-14T08:19:23;12.73;;;8.53;;
8415;SDS011;4245;42.120;24.732;2023-05-14T08:21:51;14.83;;;8.57;;
8415;SDS011;4245;42.120;24.732;2023-05-14T08:24:18;11.90;;;8.07;;
8415;SDS011;4245;42.120;24.732;2023-05-14T08:26:45;11.03;;;8.20;;
8415;SDS011;4245;42.120;24.732;2023-05-14T08:29:13;13.03;;;8.80;;
8415;SDS011;4245;42.120;24.732;2023-05-14T08:31:40;11.43;;;8.00;;
8415;SDS011;4245;42.120;24.732;2023-05-14T08:34:07;12.50;;;8.83;;
8415;SDS011;4245;42.120;24.732;2023-05-14T08:36:35;11.90;;;9.17;;
8415;SDS011;4245;42.120;24.732;2023-05-14T08:39:02;11.87;;;9.33;;
8415;SDS011;4245;42.120;24.732;2023-05-14T08:41:29;15.00;;;10.40;;
8415;SDS011;4245;42.120;24.732;2023-05-14T08:43:58;16.20;;;10.53;;
8415;SDS011;4245;42.120;24.732;2023-05-14T08:46:33;13.02;;;10.07;;
8415;SDS011;4245;42.120;24.732;2023-05-14T08:49:04;15.73;;;9.27;;
8415;SDS011;4245;42.120;24.732;2023-05-14T08:51:40;14.70;;;9.87;;
8415;SDS011;4245;42.120;24.732;2023-05-14T08:54:07;14.97;;;9.57;;
8415;SDS011;4245;42.120;24.732;2023-05-14T08:56:38;15.47;;;10.57;;
8415;SDS011;4245;42.120;24.732;2023-05-14T08:59:07;14.97;;;10.67;;
8415;SDS011;4245;42.120;24.732;2023-05-14T09:01:35;13.67;;;10.20;;
8415;SDS011;4245;42.120;24.732;2023-05-14T09:04:03;15.97;;;10.83;;
8415;SDS011;4245;42.120;24.732;2023-05-14T09:06:33;12.03;;;9.30;;
8415;SDS011;4245;42.120;24.732;2023-05-14T09:09:01;12.43;;;9.40;;
8415;SDS011;4245;42.120;24.732;2023-05-14T09:11:29;14.00;;;9.90;;
8415;SDS011;4245;42.120;24.732;2023-05-14T09:13:55;17.77;;;11.70;;
8415;SDS011;4245;42.120;24.732;2023-05-14T09:16:22;23.83;;;16.47;;
8415;SDS011;4245;42.120;24.732;2023-05-14T09:18:52;22.93;;;14.60;;
8415;SDS011;4245;42.120;24.732;2023-05-14T09:21:20;19.37;;;12.57;;
8415;SDS011;4245;42.120;24.732;2023-05-14T09:23:47;13.50;;;10.40;;
8415;SDS011;4245;42.120;24.732;2023-05-14T09:26:21;14.40;;;9.87;;
8415;SDS011;4245;42.120;24.732;2023-05-14T09:28:52;18.47;;;14.23;;
8415;SDS011;4245;42.120;24.732;2023-05-14T09:31:19;13.37;;;11.17;;
8415;SDS011;4245;42.120;24.732;2023-05-14T09:33:48;20.00;;;15.73;;
8415;SDS011;4245;42.120;24.732;2023-05-14T09:36:17;14.07;;;10.20;;
8415;SDS011;4245;42.120;24.732;2023-05-14T09:38:45;13.93;;;10.30;;
8415;SDS011;4245;42.120;24.732;2023-05-14T09:41:12;12.10;;;10.20;;
8415;SDS011;4245;42.120;24.732;2023-05-14T09:43:39;15.53;;;10.43;;
8415;SDS011;4245;42.120;24.732;2023-05-14T09:46:06;13.23;;;10.33;;
8415;SDS011;4245;42.120;24.732;2023-05-14T09:48:33;12.60;;;9.43;;
8415;SDS011;4245;42.120;24.732;2023-05-14T09:50:59;15.93;;;9.90;;
8415;SDS011;4245;42.120;24.732;2023-05-14T09:53:28;15.47;;;9.57;;
8415;SDS011;4245;42.120;24.732;2023-05-14T09:55:55;13.40;;;9.20;;
8415;SDS011;4245;42.120;24.732;2023-05-14T09:58:22;13.30;;;9.70;;
8415;SDS011;4245;42.120;24.732;2023-05-14T10:00:50;12.90;;;9.60;;
8415;SDS011;4245;42.120;24.732;2023-05-14T10:03:19;16.10;;;9.80;;
8415;SDS011;4245;42.120;24.732;2023-05-14T10:05:48;11.73;;;9.53;;
8415;SDS011;4245;42.120;24.732;2023-05-14T10:08:18;13.70;;;10.07;;
8415;SDS011;4245;42.120;24.732;2023-05-14T10:10:51;13.10;;;10.20;;
8415;SDS011;4245;42.120;24.732;2023-05-14T10:13:21;18.30;;;9.53;;
8415;SDS011;4245;42.120;24.732;2023-05-14T10:15:51;11.43;;;7.93;;
8415;SDS011;4245;42.120;24.732;2023-05-14T10:18:23;12.07;;;8.30;;
8415;SDS011;4245;42.120;24.732;2023-05-14T10:20:55;10.40;;;7.60;;
8415;SDS011;4245;42.120;24.732;2023-05-14T10:23:31;10.13;;;8.47;;
8415;SDS011;4245;42.120;24.732;2023-05-14T10:26:03;12.20;;;8.90;;
8415;SDS011;4245;42.120;24.732;2023-05-14T10:28:31;17.30;;;9.60;;
8415;SDS011;4245;42.120;24.732;2023-05-14T10:30:58;11.67;;;9.60;;
8415;SDS011;4245;42.120;24.732;2023-05-14T10:33:25;13.60;;;9.83;;
8415;SDS011;4245;42.120;24.732;2023-05-14T10:35:56;14.13;;;9.60;;
8415;SDS011;4245;42.120;24.732;2023-05-14T10:38:25;12.27;;;9.83;;
8415;SDS011;4245;42.120;24.732;2023-05-14T10:40:54;12.50;;;8.73;;
8415;SDS011;4245;42.120;24.732;2023-05-14T10:43:25;12.87;;;9.77;;
8415;SDS011;4245;42.120;24.732;2023-05-14T10:45:54;10.63;;;9.17;;
8415;SDS011;4245;42.120;24.732;2023-05-14T10:48:22;11.33;;;9.30;;
8415;SDS011;4245;42.120;24.732;2023-05-14T10:50:50;10.67;;;9.37;;
8415;SDS011;4245;42.120;24.732;2023-05-14T10:53:17;12.93;;;9.50;;
8415;SDS011;4245;42.120;24.732;2023-05-14T10:55:46;17.57;;;11.20;;
8415;SDS011;4245;42.120;24.732;2023-05-14T10:58:13;13.67;;;10.37;;
8415;SDS011;4245;42.120;24.732;2023-05-14T11:00:42;14.07;;;10.70;;
8415;SDS011;4245;42.120;24.732;2023-05-14T11:03:14;10.83;;;9.63;;
8415;SDS011;4245;42.120;24.732;2023-05-14T11:05:41;13.47;;;9.90;;
8415;SDS011;4245;42.120;24.732;2023-05-14T11:08:09;10.13;;;8.93;;
8415;SDS011;4245;42.120;24.732;2023-05-14T11:10:37;12.53;;;9.43;;
8415;SDS011;4245;42.120;24.732;2023-05-14T11:13:05;10.40;;;9.30;;
8415;SDS011;4245;42.120;24.732;2023-05-14T11:15:32;11.57;;;9.87;;
8415;SDS011;4245;42.120;24.732;2023-05-14T11:18:00;13.43;;;9.27;;
8415;SDS011;4245;42.120;24.732;2023-05-14T11:20:27;11.77;;;8.90;;
8415;SDS011;4245;42.120;24.732;2023-05-14T11:22:54;10.47;;;9.37;;
8415;SDS011;4245;42.120;24.732;2023-05-14T11:25:21;13.93;;;9.43;;
8415;SDS011;4245;42.120;24.732;2023-05-14T11:27:50;11.33;;;9.17;;
8415;SDS011;4245;42.120;24.732;2023-05-14T11:30:20;12.80;;;10.00;;
8415;SDS011;4245;42.120;24.732;2023-05-14T11:32:48;13.10;;;10.80;;
8415;SDS011;4245;42.120;24.732;2023-05-14T11:35:16;14.50;;;10.83;;
8415;SDS011;4245;42.120;24.732;2023-05-14T11:37:48;17.03;;;11.90;;
8415;SDS011;4245;42.120;24.732;2023-05-14T11:40:16;13.67;;;11.77;;
8415;SDS011;4245;42.120;24.732;2023-05-14T11:42:43;16.27;;;12.40;;
8415;SDS011;4245;42.120;24.732;2023-05-14T11:45:11;15.83;;;12.83;;
8415;SDS011;4245;42.120;24.732;2023-05-14T11:47:39;14.03;;;11.40;;
8415;SDS011;4245;42.120;24.732;2023-05-14T11:50:07;13.57;;;11.57;;
8415;SDS011;4245;42.120;24.732;2023-05-14T11:52:37;14.83;;;12.10;;
8415;SDS011;4245;42.120;24.732;2023-05-14T11:55:07;14.50;;;11.63;;
8415;SDS011;4245;42.120;24.732;2023-05-14T11:57:36;12.80;;;11.37;;
8415;SDS011;4245;42.120;24.732;2023-05-14T12:00:06;13.17;;;11.73;;
8415;SDS011;4245;42.120;24.732;2023-05-14T12:02:34;15.87;;;12.17;;
8415;SDS011;4245;42.120;24.732;2023-05-14T12:05:03;13.90;;;12.17;;
8415;SDS011;4245;42.120;24.732;2023-05-14T12:07:31;15.83;;;12.33;;
8415;SDS011;4245;42.120;24.732;2023-05-14T12:10:01;13.07;;;11.70;;
8415;SDS011;4245;42.120;24.732;2023-05-14T12:12:33;16.23;;;12.00;;
8415;SDS011;4245;42.120;24.732;2023-05-14T12:15:00;13.73;;;12.30;;
8415;SDS011;4245;42.120;24.732;2023-05-14T12:17:28;14.47;;;11.80;;
8415;SDS011;4245;42.120;24.732;2023-05-14T12:19:55;13.43;;;12.03;;
8415;SDS011;4245;42.120;24.732;2023-05-14T12:22:23;14.93;;;12.33;;
8415;SDS011;4245;42.120;24.732;2023-05-14T12:24:53;14.03;;;11.73;;
8415;SDS011;4245;42.120;24.732;2023-05-14T12:27:22;12.83;;;11.40;;
8415;SDS011;4245;42.120;24.732;2023-05-14T12:29:50;12.70;;;11.13;;
8415;SDS011;4245;42.120;24.732;2023-05-14T12:32:24;13.03;;;11.73;;
8415;SDS011;4245;42.120;24.732;2023-05-14T12:34:51;14.40;;;12.10;;
8415;SDS011;4245;42.120;24.732;2023-05-14T12:37:18;13.83;;;12.03;;
8415;SDS011;4245;42.120;24.732;2023-05-14T12:39:45;16.40;;;13.47;;
8415;SDS011;4245;42.120;24.732;2023-05-14T12:42:13;16.67;;;12.90;;
8415;SDS011;4245;42.120;24.732;2023-05-14T12:44:42;17.27;;;13.13;;
8415;SDS011;4245;42.120;24.732;2023-05-14T12:47:12;18.47;;;13.67;;
8415;SDS011;4245;42.120;24.732;2023-05-14T12:49:39;19.20;;;15.33;;
8415;SDS011;4245;42.120;24.732;2023-05-14T12:52:06;20.83;;;16.13;;
8415;SDS011;4245;42.120;24.732;2023-05-14T12:54:33;21.70;;;17.07;;
8415;SDS011;4245;42.120;24.732;2023-05-14T12:57:00;21.53;;;18.13;;
8415;SDS011;4245;42.120;24.732;2023-05-14T12:59:27;28.17;;;19.70;;
8415;SDS011;4245;42.120;24.732;2023-05-14T13:01:55;23.83;;;18.93;;
8415;SDS011;4245;42.120;24.732;2023-05-14T13:04:22;24.50;;;19.30;;
8415;SDS011;4245;42.120;24.732;2023-05-14T13:06:49;26.50;;;19.00;;
8415;SDS011;4245;42.120;24.732;2023-05-14T13:09:16;27.23;;;18.90;;
8415;SDS011;4245;42.120;24.732;2023-05-14T13:11:43;21.90;;;18.53;;
8415;SDS011;4245;42.120;24.732;2023-05-14T13:14:10;24.80;;;18.13;;
8415;SDS011;4245;42.120;24.732;2023-05-14T13:16:37;55.43;;;42.07;;
8415;SDS011;4245;42.120;24.732;2023-05-14T13:19:05;25.47;;;20.17;;
8415;SDS011;4245;42.120;24.732;2023-05-14T13:21:32;28.70;;;21.73;;
8415;SDS011;4245;42.120;24.732;2023-05-14T13:23:59;23.43;;;17.07;;
8415;SDS011;4245;42.120;24.732;2023-05-14T13:26:26;24.57;;;17.13;;
8415;SDS011;4245;42.120;24.732;2023-05-14T13:28:53;29.60;;;22.00;;
8415;SDS011;4245;42.120;24.732;2023-05-14T13:31:20;21.70;;;17.90;;
8415;SDS011;4245;42.120;24.732;2023-05-14T13:33:47;21.33;;;16.97;;
8415;SDS011;4245;42.120;24.732;2023-05-14T13:36:15;47.20;;;37.03;;
8415;SDS011;4245;42.120;24.732;2023-05-14T13:38:42;22.27;;;16.63;;
8415;SDS011;4245;42.120;24.732;2023-05-14T13:41:10;82.70;;;58.67;;
8415;SDS011;4245;42.120;24.732;2023-05-14T13:43:37;26.97;;;18.83;;
8415;SDS011;4245;42.120;24.732;2023-05-14T13:46:04;19.83;;;16.20;;
8415;SDS011;4245;42.120;24.732;2023-05-14T13:48:31;22.57;;;17.07;;
8415;SDS011;4245;42.120;24.732;2023-05-14T13:50:59;22.67;;;17.37;;
8415;SDS011;4245;42.120;24.732;2023-05-14T13:53:28;22.47;;;17.90;;
8415;SDS011;4245;42.120;24.732;2023-05-14T13:55:55;22.90;;;17.17;;
8415;SDS011;4245;42.120;24.732;2023-05-14T13:58:23;21.03;;;17.17;;
8415;SDS011;4245;42.120;24.732;2023-05-14T14:00:50;24.77;;;18.37;;
8415;SDS011;4245;42.120;24.732;2023-05-14T14:03:17;22.57;;;18.03;;
8415;SDS011;4245;42.120;24.732;2023-05-14T14:05:44;23.57;;;17.07;;
8415;SDS011;4245;42.120;24.732;2023-05-14T14:08:11;21.20;;;17.03;;
8415;SDS011;4245;42.120;24.732;2023-05-14T14:10:40;23.70;;;18.50;;
8415;SDS011;4245;42.120;24.732;2023-05-14T14:13:07;26.10;;;19.80;;
8415;SDS011;4245;42.120;24.732;2023-05-14T14:15:34;21.43;;;17.20;;
8415;SDS011;4245;42.120;24.732;2023-05-14T14:18:01;20.20;;;17.20;;
8415;SDS011;4245;42.120;24.732;2023-05-14T14:20:28;22.37;;;17.67;;
8415;SDS011;4245;42.120;24.732;2023-05-14T14:22:56;21.13;;;16.97;;
8415;SDS011;4245;42.120;24.732;2023-05-14T14:25:23;24.90;;;18.50;;
8415;SDS011;4245;42.120;24.732;2023-05-14T14:27:51;20.67;;;16.97;;
8415;SDS011;4245;42.120;24.732;2023-05-14T14:30:18;21.67;;;18.10;;
8415;SDS011;4245;42.120;24.732;2023-05-14T14:32:45;24.20;;;18.00;;
8415;SDS011;4245;42.120;24.732;2023-05-14T14:35:13;20.77;;;16.87;;
8415;SDS011;4245;42.120;24.732;2023-05-14T14:37:42;20.10;;;17.10;;
8415;SDS011;4245;42.120;24.732;2023-05-14T14:40:10;22.07;;;17.57;;
8415;SDS011;4245;42.120;24.732;2023-05-14T14:42:37;23.77;;;17.43;;
8415;SDS011;4245;42.120;24.732;2023-05-14T14:45:06;22.87;;;17.03;;
8415;SDS011;4245;42.120;24.732;2023-05-14T14:47:33;21.50;;;17.60;;
8415;SDS011;4245;42.120;24.732;2023-05-14T14:50:01;22.80;;;18.20;;
8415;SDS011;4245;42.120;24.732;2023-05-14T14:52:28;22.87;;;17.53;;